sensor_id;sensor_type;location;lat;lon;timestamp;temperature;humidity
41395;DHT22;27136;53.810;8.886;2022-07-06T00:01:18;15.50;99.90
41395;DHT22;27136;53.810;8.886;2022-07-06T00:03:43;15.50;99.90
41395;DHT22;27136;53.810;8.886;2022-07-06T00:06:09;15.50;99.90
41395;DHT22;27136;53.810;8.886;2022-07-06T00:08:35;15.40;99.90
41395;DHT22;27136;53.810;8.886;2022-07-06T00:11:00;15.50;99.90
41395;DHT22;27136;53.810;8.886;2022-07-06T00:13:26;15.40;99.90
41395;DHT22;27136;53.810;8.886;2022-07-06T00:15:52;15.40;99.90
41395;DHT22;27136;53.810;8.886;2022-07-06T00:18:18;15.40;99.90
41395;DHT22;27136;53.810;8.886;2022-07-06T00:20:43;15.40;99.90
41395;DHT22;27136;53.810;8.886;2022-07-06T00:23:09;15.40;99.90
41395;DHT22;27136;53.810;8.886;2022-07-06T00:25:35;15.40;99.90
41395;DHT22;27136;53.810;8.886;2022-07-06T00:28:01;15.40;99.90
41395;DHT22;27136;53.810;8.886;2022-07-06T00:30:27;15.40;99.90
41395;DHT22;27136;53.810;8.886;2022-07-06T00:32:53;15.40;99.90
41395;DHT22;27136;53.810;8.886;2022-07-06T00:35:18;15.40;99.90
41395;DHT22;27136;53.810;8.886;2022-07-06T00:37:44;15.40;99.90
41395;DHT22;27136;53.810;8.886;2022-07-06T00:40:10;15.40;99.90
41395;DHT22;27136;53.810;8.886;2022-07-06T00:42:43;15.40;99.90
41395;DHT22;27136;53.810;8.886;2022-07-06T00:45:10;15.40;99.90
41395;DHT22;27136;53.810;8.886;2022-07-06T00:47:36;15.30;99.90
41395;DHT22;27136;53.810;8.886;2022-07-06T00:50:03;15.30;99.90
41395;DHT22;27136;53.810;8.886;2022-07-06T00:52:48;15.40;99.90
41395;DHT22;27136;53.810;8.886;2022-07-06T00:55:15;15.40;99.90
41395;DHT22;27136;53.810;8.886;2022-07-06T00:57:42;15.30;99.90
41395;DHT22;27136;53.810;8.886;2022-07-06T01:00:10;15.30;99.90
41395;DHT22;27136;53.810;8.886;2022-07-06T01:02:36;15.30;99.90
41395;DHT22;27136;53.810;8.886;2022-07-06T01:05:07;15.30;99.90
41395;DHT22;27136;53.810;8.886;2022-07-06T01:07:33;15.30;99.90
41395;DHT22;27136;53.810;8.886;2022-07-06T01:09:59;15.20;99.90
41395;DHT22;27136;53.810;8.886;2022-07-06T01:12:25;15.30;99.90
41395;DHT22;27136;53.810;8.886;2022-07-06T01:14:51;15.30;99.90
41395;DHT22;27136;53.810;8.886;2022-07-06T01:17:17;15.20;99.90
41395;DHT22;27136;53.810;8.886;2022-07-06T01:19:43;15.30;99.90
41395;DHT22;27136;53.810;8.886;2022-07-06T01:22:09;15.30;99.90
41395;DHT22;27136;53.810;8.886;2022-07-06T01:24:36;15.30;99.90
41395;DHT22;27136;53.810;8.886;2022-07-06T01:27:05;15.30;99.90
41395;DHT22;27136;53.810;8.886;2022-07-06T01:29:31;15.30;99.90
41395;DHT22;27136;53.810;8.886;2022-07-06T01:31:57;15.20;99.90
41395;DHT22;27136;53.810;8.886;2022-07-06T01:34:23;15.20;99.90
41395;DHT22;27136;53.810;8.886;2022-07-06T01:36:49;15.20;99.90
41395;DHT22;27136;53.810;8.886;2022-07-06T01:39:14;15.30;99.90
41395;DHT22;27136;53.810;8.886;2022-07-06T01:41:40;15.20;99.90
41395;DHT22;27136;53.810;8.886;2022-07-06T01:44:06;15.20;99.90
41395;DHT22;27136;53.810;8.886;2022-07-06T01:46:31;15.20;99.90
41395;DHT22;27136;53.810;8.886;2022-07-06T01:48:57;15.20;99.90
41395;DHT22;27136;53.810;8.886;2022-07-06T01:51:23;15.20;99.90
41395;DHT22;27136;53.810;8.886;2022-07-06T01:53:50;15.20;99.90
41395;DHT22;27136;53.810;8.886;2022-07-06T01:56:16;15.20;99.90
41395;DHT22;27136;53.810;8.886;2022-07-06T01:58:42;15.20;99.90
41395;DHT22;27136;53.810;8.886;2022-07-06T02:01:15;15.20;99.90
41395;DHT22;27136;53.810;8.886;2022-07-06T02:03:42;15.30;99.90
41395;DHT22;27136;53.810;8.886;2022-07-06T02:06:08;15.30;99.90
41395;DHT22;27136;53.810;8.886;2022-07-06T02:08:34;15.30;99.90
41395;DHT22;27136;53.810;8.886;2022-07-06T02:11:01;15.20;99.90
41395;DHT22;27136;53.810;8.886;2022-07-06T02:13:26;15.20;99.90
41395;DHT22;27136;53.810;8.886;2022-07-06T02:15:52;15.20;99.90
41395;DHT22;27136;53.810;8.886;2022-07-06T02:18:18;15.20;99.90
41395;DHT22;27136;53.810;8.886;2022-07-06T02:20:43;15.30;99.90
41395;DHT22;27136;53.810;8.886;2022-07-06T02:23:09;15.30;99.90
41395;DHT22;27136;53.810;8.886;2022-07-06T02:25:34;15.30;99.90
41395;DHT22;27136;53.810;8.886;2022-07-06T02:28:00;15.30;99.90
41395;DHT22;27136;53.810;8.886;2022-07-06T02:30:26;15.20;99.90
41395;DHT22;27136;53.810;8.886;2022-07-06T02:32:51;15.20;99.90
41395;DHT22;27136;53.810;8.886;2022-07-06T02:35:17;15.20;99.90
41395;DHT22;27136;53.810;8.886;2022-07-06T02:37:42;15.20;99.90
41395;DHT22;27136;53.810;8.886;2022-07-06T02:40:08;15.20;99.90
41395;DHT22;27136;53.810;8.886;2022-07-06T02:42:34;15.20;99.90
41395;DHT22;27136;53.810;8.886;2022-07-06T02:45:00;15.10;99.90
41395;DHT22;27136;53.810;8.886;2022-07-06T02:47:25;15.10;99.90
41395;DHT22;27136;53.810;8.886;2022-07-06T02:49:51;15.10;99.90
41395;DHT22;27136;53.810;8.886;2022-07-06T02:52:17;15.10;99.90
41395;DHT22;27136;53.810;8.886;2022-07-06T02:54:43;15.20;99.90
41395;DHT22;27136;53.810;8.886;2022-07-06T02:57:08;15.00;99.90
41395;DHT22;27136;53.810;8.886;2022-07-06T02:59:34;15.00;99.90
41395;DHT22;27136;53.810;8.886;2022-07-06T03:01:59;15.00;99.90
41395;DHT22;27136;53.810;8.886;2022-07-06T03:04:25;15.00;99.90
41395;DHT22;27136;53.810;8.886;2022-07-06T03:06:50;15.00;99.90
41395;DHT22;27136;53.810;8.886;2022-07-06T03:09:16;15.00;99.90
41395;DHT22;27136;53.810;8.886;2022-07-06T03:11:41;15.00;99.90
41395;DHT22;27136;53.810;8.886;2022-07-06T03:14:07;15.10;99.90
41395;DHT22;27136;53.810;8.886;2022-07-06T03:16:32;15.10;99.90
41395;DHT22;27136;53.810;8.886;2022-07-06T03:18:58;15.00;99.90
41395;DHT22;27136;53.810;8.886;2022-07-06T03:21:24;15.10;99.90
41395;DHT22;27136;53.810;8.886;2022-07-06T03:23:50;15.00;99.90
41395;DHT22;27136;53.810;8.886;2022-07-06T03:26:16;15.00;99.90
41395;DHT22;27136;53.810;8.886;2022-07-06T03:28:41;15.10;99.90
41395;DHT22;27136;53.810;8.886;2022-07-06T03:31:07;15.00;99.90
41395;DHT22;27136;53.810;8.886;2022-07-06T03:33:32;15.00;99.90
41395;DHT22;27136;53.810;8.886;2022-07-06T03:35:58;15.00;99.90
41395;DHT22;27136;53.810;8.886;2022-07-06T03:38:24;15.10;99.90
41395;DHT22;27136;53.810;8.886;2022-07-06T03:40:49;15.10;99.90
41395;DHT22;27136;53.810;8.886;2022-07-06T03:43:15;15.00;99.90
41395;DHT22;27136;53.810;8.886;2022-07-06T03:45:40;15.00;99.90
41395;DHT22;27136;53.810;8.886;2022-07-06T03:48:06;15.10;99.90
41395;DHT22;27136;53.810;8.886;2022-07-06T03:50:32;15.00;99.90
41395;DHT22;27136;53.810;8.886;2022-07-06T03:52:57;15.00;99.90
41395;DHT22;27136;53.810;8.886;2022-07-06T03:55:23;15.00;99.90
41395;DHT22;27136;53.810;8.886;2022-07-06T03:57:48;15.00;99.90
41395;DHT22;27136;53.810;8.886;2022-07-06T04:00:14;15.00;99.90
41395;DHT22;27136;53.810;8.886;2022-07-06T04:02:40;15.00;99.90
41395;DHT22;27136;53.810;8.886;2022-07-06T04:05:06;15.00;99.90
41395;DHT22;27136;53.810;8.886;2022-07-06T04:07:31;15.10;99.90
41395;DHT22;27136;53.810;8.886;2022-07-06T04:09:57;15.00;99.90
41395;DHT22;27136;53.810;8.886;2022-07-06T04:12:23;15.10;99.90
41395;DHT22;27136;53.810;8.886;2022-07-06T04:14:48;15.10;99.90
41395;DHT22;27136;53.810;8.886;2022-07-06T04:17:14;15.10;99.90
41395;DHT22;27136;53.810;8.886;2022-07-06T04:19:58;15.10;99.90
41395;DHT22;27136;53.810;8.886;2022-07-06T04:22:23;15.10;99.90
41395;DHT22;27136;53.810;8.886;2022-07-06T04:24:49;15.10;99.90
41395;DHT22;27136;53.810;8.886;2022-07-06T04:27:14;15.10;99.90
41395;DHT22;27136;53.810;8.886;2022-07-06T04:29:40;15.20;99.90
41395;DHT22;27136;53.810;8.886;2022-07-06T04:32:06;15.10;99.90
41395;DHT22;27136;53.810;8.886;2022-07-06T04:34:31;15.10;99.90
41395;DHT22;27136;53.810;8.886;2022-07-06T04:36:57;15.10;99.90
41395;DHT22;27136;53.810;8.886;2022-07-06T04:39:22;15.20;99.90
41395;DHT22;27136;53.810;8.886;2022-07-06T04:41:48;15.20;99.90
41395;DHT22;27136;53.810;8.886;2022-07-06T04:44:14;15.20;99.90
41395;DHT22;27136;53.810;8.886;2022-07-06T04:46:39;15.20;99.90
41395;DHT22;27136;53.810;8.886;2022-07-06T04:49:05;15.30;99.90
41395;DHT22;27136;53.810;8.886;2022-07-06T04:51:32;15.30;99.90
41395;DHT22;27136;53.810;8.886;2022-07-06T04:53:57;15.30;99.90
41395;DHT22;27136;53.810;8.886;2022-07-06T04:56:23;15.30;99.90
41395;DHT22;27136;53.810;8.886;2022-07-06T04:58:48;15.30;99.90
41395;DHT22;27136;53.810;8.886;2022-07-06T05:01:14;15.40;99.90
41395;DHT22;27136;53.810;8.886;2022-07-06T05:03:39;15.40;99.90
41395;DHT22;27136;53.810;8.886;2022-07-06T05:06:07;15.40;99.90
41395;DHT22;27136;53.810;8.886;2022-07-06T05:08:33;15.40;99.90
41395;DHT22;27136;53.810;8.886;2022-07-06T05:10:59;15.40;99.90
41395;DHT22;27136;53.810;8.886;2022-07-06T05:13:25;15.30;99.90
41395;DHT22;27136;53.810;8.886;2022-07-06T05:15:50;15.40;99.90
41395;DHT22;27136;53.810;8.886;2022-07-06T05:18:16;15.30;99.90
41395;DHT22;27136;53.810;8.886;2022-07-06T05:20:41;15.40;99.90
41395;DHT22;27136;53.810;8.886;2022-07-06T05:23:08;15.40;99.90
41395;DHT22;27136;53.810;8.886;2022-07-06T05:25:33;15.40;99.90
41395;DHT22;27136;53.810;8.886;2022-07-06T05:27:59;15.40;99.90
41395;DHT22;27136;53.810;8.886;2022-07-06T05:30:25;15.40;99.90
41395;DHT22;27136;53.810;8.886;2022-07-06T05:32:51;15.40;99.90
41395;DHT22;27136;53.810;8.886;2022-07-06T05:35:17;15.40;99.90
41395;DHT22;27136;53.810;8.886;2022-07-06T05:37:43;15.50;99.90
41395;DHT22;27136;53.810;8.886;2022-07-06T05:40:09;15.50;99.90
41395;DHT22;27136;53.810;8.886;2022-07-06T05:42:35;15.50;99.90
41395;DHT22;27136;53.810;8.886;2022-07-06T05:45:00;15.50;99.90
41395;DHT22;27136;53.810;8.886;2022-07-06T05:47:26;15.60;99.90
41395;DHT22;27136;53.810;8.886;2022-07-06T05:50:10;15.60;99.90
41395;DHT22;27136;53.810;8.886;2022-07-06T05:52:39;15.70;99.90
41395;DHT22;27136;53.810;8.886;2022-07-06T05:55:05;15.70;99.90
41395;DHT22;27136;53.810;8.886;2022-07-06T05:57:31;15.70;99.90
41395;DHT22;27136;53.810;8.886;2022-07-06T05:59:56;15.70;99.90
41395;DHT22;27136;53.810;8.886;2022-07-06T06:02:22;15.80;99.90
41395;DHT22;27136;53.810;8.886;2022-07-06T06:04:48;15.80;99.90
41395;DHT22;27136;53.810;8.886;2022-07-06T06:07:13;15.80;99.90
41395;DHT22;27136;53.810;8.886;2022-07-06T06:09:39;15.90;99.90
41395;DHT22;27136;53.810;8.886;2022-07-06T06:12:04;15.90;99.90
41395;DHT22;27136;53.810;8.886;2022-07-06T06:14:30;16.00;99.90
41395;DHT22;27136;53.810;8.886;2022-07-06T06:16:56;15.90;99.90
41395;DHT22;27136;53.810;8.886;2022-07-06T06:19:21;15.90;99.90
41395;DHT22;27136;53.810;8.886;2022-07-06T06:21:47;15.90;99.90
41395;DHT22;27136;53.810;8.886;2022-07-06T06:24:12;16.00;99.90
41395;DHT22;27136;53.810;8.886;2022-07-06T06:26:38;15.90;99.90
41395;DHT22;27136;53.810;8.886;2022-07-06T06:29:03;15.90;99.90
41395;DHT22;27136;53.810;8.886;2022-07-06T06:31:29;16.00;99.90
41395;DHT22;27136;53.810;8.886;2022-07-06T06:33:54;16.00;99.90
41395;DHT22;27136;53.810;8.886;2022-07-06T06:36:20;16.10;99.90
41395;DHT22;27136;53.810;8.886;2022-07-06T06:38:45;16.00;99.90
41395;DHT22;27136;53.810;8.886;2022-07-06T06:41:11;16.00;99.90
41395;DHT22;27136;53.810;8.886;2022-07-06T06:43:38;16.00;99.90
41395;DHT22;27136;53.810;8.886;2022-07-06T06:46:03;15.90;99.90
41395;DHT22;27136;53.810;8.886;2022-07-06T06:48:29;16.00;99.90
41395;DHT22;27136;53.810;8.886;2022-07-06T06:50:56;15.90;99.90
41395;DHT22;27136;53.810;8.886;2022-07-06T06:53:22;15.80;99.90
41395;DHT22;27136;53.810;8.886;2022-07-06T06:55:47;15.90;99.90
41395;DHT22;27136;53.810;8.886;2022-07-06T06:58:13;15.80;99.90
41395;DHT22;27136;53.810;8.886;2022-07-06T07:00:38;15.80;99.90
41395;DHT22;27136;53.810;8.886;2022-07-06T07:03:04;15.90;99.90
41395;DHT22;27136;53.810;8.886;2022-07-06T07:05:30;15.90;99.90
41395;DHT22;27136;53.810;8.886;2022-07-06T07:07:55;15.90;99.90
41395;DHT22;27136;53.810;8.886;2022-07-06T07:10:25;15.90;99.90
41395;DHT22;27136;53.810;8.886;2022-07-06T07:12:51;16.00;99.90
41395;DHT22;27136;53.810;8.886;2022-07-06T07:15:17;16.00;99.90
41395;DHT22;27136;53.810;8.886;2022-07-06T07:17:42;16.00;99.90
41395;DHT22;27136;53.810;8.886;2022-07-06T07:20:08;16.10;99.90
41395;DHT22;27136;53.810;8.886;2022-07-06T07:22:34;16.20;99.90
41395;DHT22;27136;53.810;8.886;2022-07-06T07:24:59;16.20;99.90
41395;DHT22;27136;53.810;8.886;2022-07-06T07:27:25;16.20;99.90
41395;DHT22;27136;53.810;8.886;2022-07-06T07:29:51;16.30;99.90
41395;DHT22;27136;53.810;8.886;2022-07-06T07:32:17;16.20;99.90
41395;DHT22;27136;53.810;8.886;2022-07-06T07:34:42;16.20;99.90
41395;DHT22;27136;53.810;8.886;2022-07-06T07:37:08;16.30;99.90
41395;DHT22;27136;53.810;8.886;2022-07-06T07:39:33;16.30;99.90
41395;DHT22;27136;53.810;8.886;2022-07-06T07:41:59;16.40;99.90
41395;DHT22;27136;53.810;8.886;2022-07-06T07:44:24;16.40;99.90
41395;DHT22;27136;53.810;8.886;2022-07-06T07:46:52;16.40;99.90
41395;DHT22;27136;53.810;8.886;2022-07-06T07:49:18;16.40;99.90
41395;DHT22;27136;53.810;8.886;2022-07-06T07:51:46;16.50;99.90
41395;DHT22;27136;53.810;8.886;2022-07-06T07:54:12;16.40;99.90
41395;DHT22;27136;53.810;8.886;2022-07-06T07:56:38;16.40;99.90
41395;DHT22;27136;53.810;8.886;2022-07-06T07:59:06;16.50;99.90
41395;DHT22;27136;53.810;8.886;2022-07-06T08:01:32;16.60;99.90
41395;DHT22;27136;53.810;8.886;2022-07-06T08:03:58;16.60;99.90
41395;DHT22;27136;53.810;8.886;2022-07-06T08:06:24;16.60;99.90
41395;DHT22;27136;53.810;8.886;2022-07-06T08:08:50;16.60;99.90
41395;DHT22;27136;53.810;8.886;2022-07-06T08:11:16;16.60;99.90
41395;DHT22;27136;53.810;8.886;2022-07-06T08:13:41;16.70;99.90
41395;DHT22;27136;53.810;8.886;2022-07-06T08:16:07;16.70;99.90
41395;DHT22;27136;53.810;8.886;2022-07-06T08:18:35;16.80;99.90
41395;DHT22;27136;53.810;8.886;2022-07-06T08:21:00;16.80;99.90
41395;DHT22;27136;53.810;8.886;2022-07-06T08:23:26;16.70;99.90
41395;DHT22;27136;53.810;8.886;2022-07-06T08:25:52;16.90;99.90
41395;DHT22;27136;53.810;8.886;2022-07-06T08:28:17;16.90;99.90
41395;DHT22;27136;53.810;8.886;2022-07-06T08:30:42;16.90;99.90
41395;DHT22;27136;53.810;8.886;2022-07-06T08:33:08;17.00;99.90
41395;DHT22;27136;53.810;8.886;2022-07-06T08:35:34;17.00;99.90
41395;DHT22;27136;53.810;8.886;2022-07-06T08:37:59;17.10;99.90
41395;DHT22;27136;53.810;8.886;2022-07-06T08:40:26;17.00;99.90
41395;DHT22;27136;53.810;8.886;2022-07-06T08:42:56;16.90;99.90
41395;DHT22;27136;53.810;8.886;2022-07-06T08:45:25;17.00;99.90
41395;DHT22;27136;53.810;8.886;2022-07-06T08:47:51;17.00;99.90
41395;DHT22;27136;53.810;8.886;2022-07-06T08:50:19;17.00;99.90
41395;DHT22;27136;53.810;8.886;2022-07-06T08:52:47;17.10;99.90
41395;DHT22;27136;53.810;8.886;2022-07-06T08:55:13;17.10;99.90
41395;DHT22;27136;53.810;8.886;2022-07-06T08:57:39;17.20;99.90
41395;DHT22;27136;53.810;8.886;2022-07-06T09:00:08;17.20;99.90
41395;DHT22;27136;53.810;8.886;2022-07-06T09:02:34;17.20;99.90
41395;DHT22;27136;53.810;8.886;2022-07-06T09:05:02;17.20;99.90
41395;DHT22;27136;53.810;8.886;2022-07-06T09:07:29;17.10;99.90
41395;DHT22;27136;53.810;8.886;2022-07-06T09:09:55;17.10;99.90
41395;DHT22;27136;53.810;8.886;2022-07-06T09:12:26;17.20;99.90
41395;DHT22;27136;53.810;8.886;2022-07-06T09:14:55;17.30;99.90
41395;DHT22;27136;53.810;8.886;2022-07-06T09:17:26;17.30;99.90
41395;DHT22;27136;53.810;8.886;2022-07-06T09:19:52;17.30;99.90
41395;DHT22;27136;53.810;8.886;2022-07-06T09:22:29;17.30;99.90
41395;DHT22;27136;53.810;8.886;2022-07-06T09:25:11;17.30;99.90
41395;DHT22;27136;53.810;8.886;2022-07-06T09:27:42;17.30;99.90
41395;DHT22;27136;53.810;8.886;2022-07-06T09:30:09;17.30;99.90
41395;DHT22;27136;53.810;8.886;2022-07-06T09:32:43;17.30;99.90
41395;DHT22;27136;53.810;8.886;2022-07-06T09:35:26;17.30;99.90
41395;DHT22;27136;53.810;8.886;2022-07-06T09:40:31;17.40;99.90
41395;DHT22;27136;53.810;8.886;2022-07-06T09:45:36;17.40;99.90
41395;DHT22;27136;53.810;8.886;2022-07-06T09:48:10;17.40;99.90
41395;DHT22;27136;53.810;8.886;2022-07-06T09:50:46;17.40;99.90
41395;DHT22;27136;53.810;8.886;2022-07-06T09:53:13;17.40;99.90
41395;DHT22;27136;53.810;8.886;2022-07-06T09:55:44;17.40;99.90
41395;DHT22;27136;53.810;8.886;2022-07-06T09:58:10;17.40;99.90
41395;DHT22;27136;53.810;8.886;2022-07-06T10:00:36;17.40;99.90
41395;DHT22;27136;53.810;8.886;2022-07-06T10:03:01;17.40;99.90
41395;DHT22;27136;53.810;8.886;2022-07-06T10:05:27;17.50;99.90
41395;DHT22;27136;53.810;8.886;2022-07-06T10:07:59;17.50;99.90
41395;DHT22;27136;53.810;8.886;2022-07-06T10:10:26;17.50;99.90
41395;DHT22;27136;53.810;8.886;2022-07-06T10:12:55;17.50;99.90
41395;DHT22;27136;53.810;8.886;2022-07-06T10:15:22;17.60;99.90
41395;DHT22;27136;53.810;8.886;2022-07-06T10:17:50;17.70;99.90
41395;DHT22;27136;53.810;8.886;2022-07-06T10:20:18;17.70;99.90
41395;DHT22;27136;53.810;8.886;2022-07-06T10:22:46;17.70;99.90
41395;DHT22;27136;53.810;8.886;2022-07-06T10:25:12;17.70;99.90
41395;DHT22;27136;53.810;8.886;2022-07-06T10:27:39;17.70;99.90
41395;DHT22;27136;53.810;8.886;2022-07-06T10:30:05;17.80;99.90
41395;DHT22;27136;53.810;8.886;2022-07-06T10:32:31;17.90;99.90
41395;DHT22;27136;53.810;8.886;2022-07-06T10:34:56;17.90;99.90
41395;DHT22;27136;53.810;8.886;2022-07-06T10:37:26;18.00;99.90
41395;DHT22;27136;53.810;8.886;2022-07-06T10:39:52;18.00;99.90
41395;DHT22;27136;53.810;8.886;2022-07-06T10:42:47;18.00;99.90
41395;DHT22;27136;53.810;8.886;2022-07-06T10:45:49;18.10;99.90
41395;DHT22;27136;53.810;8.886;2022-07-06T10:50:35;18.20;99.90
41395;DHT22;27136;53.810;8.886;2022-07-06T10:53:01;18.40;99.90
41395;DHT22;27136;53.810;8.886;2022-07-06T10:55:38;18.20;99.90
41395;DHT22;27136;53.810;8.886;2022-07-06T10:58:04;18.30;99.90
41395;DHT22;27136;53.810;8.886;2022-07-06T11:06:06;18.10;99.90
41395;DHT22;27136;53.810;8.886;2022-07-06T11:08:55;18.00;99.90
41395;DHT22;27136;53.810;8.886;2022-07-06T11:14:03;18.00;99.90
41395;DHT22;27136;53.810;8.886;2022-07-06T11:16:36;18.40;99.90
41395;DHT22;27136;53.810;8.886;2022-07-06T11:19:13;18.40;99.90
41395;DHT22;27136;53.810;8.886;2022-07-06T11:21:52;18.20;99.90
41395;DHT22;27136;53.810;8.886;2022-07-06T11:24:19;18.20;99.90
41395;DHT22;27136;53.810;8.886;2022-07-06T11:26:48;18.40;99.90
41395;DHT22;27136;53.810;8.886;2022-07-06T11:29:14;18.40;99.90
41395;DHT22;27136;53.810;8.886;2022-07-06T11:31:41;18.50;99.90
41395;DHT22;27136;53.810;8.886;2022-07-06T11:34:09;18.80;99.90
41395;DHT22;27136;53.810;8.886;2022-07-06T11:36:36;18.90;99.90
41395;DHT22;27136;53.810;8.886;2022-07-06T11:39:03;19.10;99.90
41395;DHT22;27136;53.810;8.886;2022-07-06T11:41:31;19.10;99.90
41395;DHT22;27136;53.810;8.886;2022-07-06T11:43:56;19.00;99.90
41395;DHT22;27136;53.810;8.886;2022-07-06T11:46:33;19.20;99.90
41395;DHT22;27136;53.810;8.886;2022-07-06T11:49:08;19.20;99.90
41395;DHT22;27136;53.810;8.886;2022-07-06T11:51:36;19.10;99.90
41395;DHT22;27136;53.810;8.886;2022-07-06T11:54:09;19.20;99.90
41395;DHT22;27136;53.810;8.886;2022-07-06T11:56:35;19.20;99.90
41395;DHT22;27136;53.810;8.886;2022-07-06T11:59:00;19.20;99.90
41395;DHT22;27136;53.810;8.886;2022-07-06T12:01:28;19.10;99.90
41395;DHT22;27136;53.810;8.886;2022-07-06T12:03:58;19.10;99.90
41395;DHT22;27136;53.810;8.886;2022-07-06T12:06:25;19.10;99.90
41395;DHT22;27136;53.810;8.886;2022-07-06T12:08:56;19.10;99.90
41395;DHT22;27136;53.810;8.886;2022-07-06T12:11:29;19.00;99.90
41395;DHT22;27136;53.810;8.886;2022-07-06T12:13:57;19.20;99.90
41395;DHT22;27136;53.810;8.886;2022-07-06T12:16:30;19.20;99.90
41395;DHT22;27136;53.810;8.886;2022-07-06T12:18:56;19.50;99.90
41395;DHT22;27136;53.810;8.886;2022-07-06T12:21:21;19.20;99.90
41395;DHT22;27136;53.810;8.886;2022-07-06T12:23:51;19.30;99.90
41395;DHT22;27136;53.810;8.886;2022-07-06T12:26:19;19.50;99.90
41395;DHT22;27136;53.810;8.886;2022-07-06T12:28:46;19.70;99.90
41395;DHT22;27136;53.810;8.886;2022-07-06T12:31:34;19.60;99.90
41395;DHT22;27136;53.810;8.886;2022-07-06T12:34:00;19.50;99.90
41395;DHT22;27136;53.810;8.886;2022-07-06T12:36:26;19.40;99.90
41395;DHT22;27136;53.810;8.886;2022-07-06T12:38:52;19.10;99.90
41395;DHT22;27136;53.810;8.886;2022-07-06T12:41:29;19.10;99.90
41395;DHT22;27136;53.810;8.886;2022-07-06T12:44:06;19.20;99.90
41395;DHT22;27136;53.810;8.886;2022-07-06T12:46:37;19.10;99.90
41395;DHT22;27136;53.810;8.886;2022-07-06T12:49:14;19.30;99.90
41395;DHT22;27136;53.810;8.886;2022-07-06T12:51:56;19.40;99.90
41395;DHT22;27136;53.810;8.886;2022-07-06T12:54:25;19.20;99.90
41395;DHT22;27136;53.810;8.886;2022-07-06T12:57:41;19.40;99.90
41395;DHT22;27136;53.810;8.886;2022-07-06T12:59:57;19.40;99.90
41395;DHT22;27136;53.810;8.886;2022-07-06T13:02:25;19.10;99.90
41395;DHT22;27136;53.810;8.886;2022-07-06T13:05:03;19.30;99.90
41395;DHT22;27136;53.810;8.886;2022-07-06T13:07:30;19.20;99.90
41395;DHT22;27136;53.810;8.886;2022-07-06T13:10:08;19.30;99.90
41395;DHT22;27136;53.810;8.886;2022-07-06T13:12:34;19.20;99.90
41395;DHT22;27136;53.810;8.886;2022-07-06T13:15:00;19.30;99.90
41395;DHT22;27136;53.810;8.886;2022-07-06T13:17:25;19.60;99.90
41395;DHT22;27136;53.810;8.886;2022-07-06T13:19:51;19.60;99.90
41395;DHT22;27136;53.810;8.886;2022-07-06T13:22:17;19.80;99.90
41395;DHT22;27136;53.810;8.886;2022-07-06T13:24:43;19.70;99.90
41395;DHT22;27136;53.810;8.886;2022-07-06T13:27:09;19.70;99.90
41395;DHT22;27136;53.810;8.886;2022-07-06T13:29:35;19.80;99.90
41395;DHT22;27136;53.810;8.886;2022-07-06T13:32:01;19.80;99.90
41395;DHT22;27136;53.810;8.886;2022-07-06T13:34:27;19.80;99.90
41395;DHT22;27136;53.810;8.886;2022-07-06T13:36:53;19.80;99.90
41395;DHT22;27136;53.810;8.886;2022-07-06T13:39:19;20.10;99.90
41395;DHT22;27136;53.810;8.886;2022-07-06T13:41:44;20.20;99.90
41395;DHT22;27136;53.810;8.886;2022-07-06T13:44:10;20.20;99.90
41395;DHT22;27136;53.810;8.886;2022-07-06T13:46:38;20.30;99.90
41395;DHT22;27136;53.810;8.886;2022-07-06T13:49:05;20.20;99.90
41395;DHT22;27136;53.810;8.886;2022-07-06T13:51:31;20.40;99.90
41395;DHT22;27136;53.810;8.886;2022-07-06T13:53:58;20.60;99.90
41395;DHT22;27136;53.810;8.886;2022-07-06T13:56:24;20.40;99.90
41395;DHT22;27136;53.810;8.886;2022-07-06T13:58:50;20.30;99.90
41395;DHT22;27136;53.810;8.886;2022-07-06T14:01:16;20.20;99.90
41395;DHT22;27136;53.810;8.886;2022-07-06T14:03:41;20.30;99.90
41395;DHT22;27136;53.810;8.886;2022-07-06T14:06:08;20.20;99.90
41395;DHT22;27136;53.810;8.886;2022-07-06T14:08:35;20.10;99.90
41395;DHT22;27136;53.810;8.886;2022-07-06T14:11:01;20.20;99.90
41395;DHT22;27136;53.810;8.886;2022-07-06T14:13:27;20.40;99.90
41395;DHT22;27136;53.810;8.886;2022-07-06T14:15:52;20.50;99.90
41395;DHT22;27136;53.810;8.886;2022-07-06T14:18:18;20.40;99.90
41395;DHT22;27136;53.810;8.886;2022-07-06T14:20:45;20.40;99.90
41395;DHT22;27136;53.810;8.886;2022-07-06T14:23:11;20.40;99.90
41395;DHT22;27136;53.810;8.886;2022-07-06T14:25:38;20.60;99.90
41395;DHT22;27136;53.810;8.886;2022-07-06T14:28:04;20.60;99.90
41395;DHT22;27136;53.810;8.886;2022-07-06T14:30:32;20.60;99.90
41395;DHT22;27136;53.810;8.886;2022-07-06T14:32:57;20.60;99.90
41395;DHT22;27136;53.810;8.886;2022-07-06T14:35:23;20.70;99.90
41395;DHT22;27136;53.810;8.886;2022-07-06T14:37:50;20.70;99.90
41395;DHT22;27136;53.810;8.886;2022-07-06T14:40:16;20.60;99.90
41395;DHT22;27136;53.810;8.886;2022-07-06T14:42:41;20.90;99.90
41395;DHT22;27136;53.810;8.886;2022-07-06T14:45:07;20.50;99.90
41395;DHT22;27136;53.810;8.886;2022-07-06T14:47:33;20.40;99.90
41395;DHT22;27136;53.810;8.886;2022-07-06T14:49:58;20.30;99.90
41395;DHT22;27136;53.810;8.886;2022-07-06T14:52:24;20.60;99.90
41395;DHT22;27136;53.810;8.886;2022-07-06T14:54:49;20.40;99.90
41395;DHT22;27136;53.810;8.886;2022-07-06T14:57:15;20.50;99.90
41395;DHT22;27136;53.810;8.886;2022-07-06T14:59:41;20.50;99.90
41395;DHT22;27136;53.810;8.886;2022-07-06T15:02:07;20.50;99.90
41395;DHT22;27136;53.810;8.886;2022-07-06T15:04:32;20.50;99.90
41395;DHT22;27136;53.810;8.886;2022-07-06T15:06:58;20.70;99.90
41395;DHT22;27136;53.810;8.886;2022-07-06T15:09:24;20.80;99.90
41395;DHT22;27136;53.810;8.886;2022-07-06T15:11:52;20.90;99.90
41395;DHT22;27136;53.810;8.886;2022-07-06T15:14:18;20.80;99.90
41395;DHT22;27136;53.810;8.886;2022-07-06T15:16:44;20.90;99.90
41395;DHT22;27136;53.810;8.886;2022-07-06T15:19:10;20.70;99.90
41395;DHT22;27136;53.810;8.886;2022-07-06T15:21:36;20.70;99.90
41395;DHT22;27136;53.810;8.886;2022-07-06T15:24:01;20.80;99.90
41395;DHT22;27136;53.810;8.886;2022-07-06T15:26:28;20.70;99.90
41395;DHT22;27136;53.810;8.886;2022-07-06T15:28:53;20.80;99.90
41395;DHT22;27136;53.810;8.886;2022-07-06T15:31:19;20.80;99.90
41395;DHT22;27136;53.810;8.886;2022-07-06T15:33:45;20.50;99.90
41395;DHT22;27136;53.810;8.886;2022-07-06T15:36:10;20.60;99.90
41395;DHT22;27136;53.810;8.886;2022-07-06T15:38:36;20.50;99.90
41395;DHT22;27136;53.810;8.886;2022-07-06T15:41:02;20.30;99.90
41395;DHT22;27136;53.810;8.886;2022-07-06T15:43:29;20.40;99.90
41395;DHT22;27136;53.810;8.886;2022-07-06T15:45:57;20.50;99.90